sensor_id;sensor_type;location;lat;lon;timestamp;temperature;humidity
52965;DHT22;42923;53.220;6.528;2022-12-18T00:00:46;-3.70;99.90
52965;DHT22;42923;53.220;6.528;2022-12-18T00:03:13;-3.80;99.90
52965;DHT22;42923;53.220;6.528;2022-12-18T00:05:49;-3.80;99.90
52965;DHT22;42923;53.220;6.528;2022-12-18T00:08:16;-3.80;99.90
52965;DHT22;42923;53.220;6.528;2022-12-18T00:10:42;-3.80;99.90
52965;DHT22;42923;53.220;6.528;2022-12-18T00:13:09;-3.80;99.90
52965;DHT22;42923;53.220;6.528;2022-12-18T00:15:36;-3.80;99.90
52965;DHT22;42923;53.220;6.528;2022-12-18T00:18:01;-3.80;99.90
52965;DHT22;42923;53.220;6.528;2022-12-18T00:20:27;-3.80;99.90
52965;DHT22;42923;53.220;6.528;2022-12-18T00:22:54;-3.80;99.90
52965;DHT22;42923;53.220;6.528;2022-12-18T00:25:20;-3.80;99.90
52965;DHT22;42923;53.220;6.528;2022-12-18T00:27:46;-3.80;99.90
52965;DHT22;42923;53.220;6.528;2022-12-18T00:30:13;-3.90;99.90
52965;DHT22;42923;53.220;6.528;2022-12-18T00:32:39;-3.90;99.90
52965;DHT22;42923;53.220;6.528;2022-12-18T00:35:06;-3.90;99.90
52965;DHT22;42923;53.220;6.528;2022-12-18T00:37:33;-3.90;99.90
52965;DHT22;42923;53.220;6.528;2022-12-18T00:39:59;-4.00;99.90
52965;DHT22;42923;53.220;6.528;2022-12-18T00:42:26;-4.00;99.90
52965;DHT22;42923;53.220;6.528;2022-12-18T00:45:10;-4.00;99.90
52965;DHT22;42923;53.220;6.528;2022-12-18T00:47:36;-4.00;99.90
52965;DHT22;42923;53.220;6.528;2022-12-18T00:50:02;-4.00;99.90
52965;DHT22;42923;53.220;6.528;2022-12-18T00:52:28;-3.90;99.90
52965;DHT22;42923;53.220;6.528;2022-12-18T00:54:53;-4.00;99.90
52965;DHT22;42923;53.220;6.528;2022-12-18T00:57:19;-4.00;99.90
52965;DHT22;42923;53.220;6.528;2022-12-18T00:59:45;-4.00;99.90
52965;DHT22;42923;53.220;6.528;2022-12-18T01:02:11;-4.00;99.90
52965;DHT22;42923;53.220;6.528;2022-12-18T01:04:39;-4.00;99.90
52965;DHT22;42923;53.220;6.528;2022-12-18T01:07:06;-4.00;99.90
52965;DHT22;42923;53.220;6.528;2022-12-18T01:09:33;-4.10;99.90
52965;DHT22;42923;53.220;6.528;2022-12-18T01:11:59;-4.10;99.90
52965;DHT22;42923;53.220;6.528;2022-12-18T01:14:25;-4.10;99.90
52965;DHT22;42923;53.220;6.528;2022-12-18T01:16:52;-4.10;99.90
52965;DHT22;42923;53.220;6.528;2022-12-18T01:19:17;-4.10;99.90
52965;DHT22;42923;53.220;6.528;2022-12-18T01:21:45;-4.20;99.90
52965;DHT22;42923;53.220;6.528;2022-12-18T01:24:12;-4.20;99.90
52965;DHT22;42923;53.220;6.528;2022-12-18T01:26:38;-4.20;99.90
52965;DHT22;42923;53.220;6.528;2022-12-18T01:29:04;-4.30;99.90
52965;DHT22;42923;53.220;6.528;2022-12-18T01:31:32;-4.40;99.90
52965;DHT22;42923;53.220;6.528;2022-12-18T01:34:00;-4.40;99.90
52965;DHT22;42923;53.220;6.528;2022-12-18T01:36:29;-4.50;99.90
52965;DHT22;42923;53.220;6.528;2022-12-18T01:38:56;-4.50;99.90
52965;DHT22;42923;53.220;6.528;2022-12-18T01:41:25;-4.50;99.90
52965;DHT22;42923;53.220;6.528;2022-12-18T01:43:56;-4.60;99.90
52965;DHT22;42923;53.220;6.528;2022-12-18T01:46:24;-4.60;99.90
52965;DHT22;42923;53.220;6.528;2022-12-18T01:48:57;-4.20;99.90
52965;DHT22;42923;53.220;6.528;2022-12-18T01:51:27;-4.50;99.90
52965;DHT22;42923;53.220;6.528;2022-12-18T01:53:53;-4.60;99.90
52965;DHT22;42923;53.220;6.528;2022-12-18T01:56:20;-4.60;99.90
52965;DHT22;42923;53.220;6.528;2022-12-18T01:59:00;-4.70;99.90
52965;DHT22;42923;53.220;6.528;2022-12-18T02:01:29;-4.70;99.90
52965;DHT22;42923;53.220;6.528;2022-12-18T02:03:55;-4.80;99.90
52965;DHT22;42923;53.220;6.528;2022-12-18T02:06:25;-4.80;99.90
52965;DHT22;42923;53.220;6.528;2022-12-18T02:09:02;-4.90;99.90
52965;DHT22;42923;53.220;6.528;2022-12-18T02:11:40;-5.00;99.90
52965;DHT22;42923;53.220;6.528;2022-12-18T02:14:22;-5.00;99.90
52965;DHT22;42923;53.220;6.528;2022-12-18T02:27:44;-5.30;99.90
52965;DHT22;42923;53.220;6.528;2022-12-18T02:30:11;-5.30;99.90
52965;DHT22;42923;53.220;6.528;2022-12-18T02:32:40;-5.30;99.90
52965;DHT22;42923;53.220;6.528;2022-12-18T02:35:16;-5.30;99.90
52965;DHT22;42923;53.220;6.528;2022-12-18T02:37:45;-5.30;99.90
52965;DHT22;42923;53.220;6.528;2022-12-18T02:40:14;-5.40;99.90
52965;DHT22;42923;53.220;6.528;2022-12-18T02:42:41;-5.40;99.90
52965;DHT22;42923;53.220;6.528;2022-12-18T02:45:10;-5.40;99.90
52965;DHT22;42923;53.220;6.528;2022-12-18T02:47:39;-5.40;99.90
52965;DHT22;42923;53.220;6.528;2022-12-18T02:50:36;-5.40;99.90
52965;DHT22;42923;53.220;6.528;2022-12-18T02:56:06;-5.50;99.90
52965;DHT22;42923;53.220;6.528;2022-12-18T03:04:47;-5.60;99.90
52965;DHT22;42923;53.220;6.528;2022-12-18T03:07:26;-5.60;99.90
52965;DHT22;42923;53.220;6.528;2022-12-18T03:09:55;-5.60;99.90
52965;DHT22;42923;53.220;6.528;2022-12-18T03:12:33;-5.60;99.90
52965;DHT22;42923;53.220;6.528;2022-12-18T03:15:18;-5.50;99.90
52965;DHT22;42923;53.220;6.528;2022-12-18T03:17:52;-5.50;99.90
52965;DHT22;42923;53.220;6.528;2022-12-18T03:20:25;-5.50;99.90
52965;DHT22;42923;53.220;6.528;2022-12-18T03:22:57;-5.50;99.90
52965;DHT22;42923;53.220;6.528;2022-12-18T03:25:25;-5.40;99.90
52965;DHT22;42923;53.220;6.528;2022-12-18T03:27:56;-5.40;99.90
52965;DHT22;42923;53.220;6.528;2022-12-18T03:30:24;-5.30;99.90
52965;DHT22;42923;53.220;6.528;2022-12-18T03:32:52;-5.40;99.90
52965;DHT22;42923;53.220;6.528;2022-12-18T03:35:28;-5.40;99.90
52965;DHT22;42923;53.220;6.528;2022-12-18T03:37:55;-5.40;99.90
52965;DHT22;42923;53.220;6.528;2022-12-18T03:40:29;-5.40;99.90
52965;DHT22;42923;53.220;6.528;2022-12-18T03:43:07;-5.50;99.90
52965;DHT22;42923;53.220;6.528;2022-12-18T03:45:38;-5.50;99.90
52965;DHT22;42923;53.220;6.528;2022-12-18T03:48:18;-5.50;99.90
52965;DHT22;42923;53.220;6.528;2022-12-18T03:50:53;-5.50;99.90
52965;DHT22;42923;53.220;6.528;2022-12-18T03:53:42;-5.50;99.90
52965;DHT22;42923;53.220;6.528;2022-12-18T03:56:12;-5.50;99.90
52965;DHT22;42923;53.220;6.528;2022-12-18T03:58:41;-5.60;99.90
52965;DHT22;42923;53.220;6.528;2022-12-18T04:01:37;-5.60;99.90
52965;DHT22;42923;53.220;6.528;2022-12-18T04:04:04;-5.60;99.90
52965;DHT22;42923;53.220;6.528;2022-12-18T04:06:36;-5.60;99.90
52965;DHT22;42923;53.220;6.528;2022-12-18T04:09:04;-5.50;99.90
52965;DHT22;42923;53.220;6.528;2022-12-18T04:11:32;-5.50;99.90
52965;DHT22;42923;53.220;6.528;2022-12-18T04:13:59;-5.50;99.90
52965;DHT22;42923;53.220;6.528;2022-12-18T04:16:26;-5.50;99.90
52965;DHT22;42923;53.220;6.528;2022-12-18T04:18:55;-5.60;99.90
52965;DHT22;42923;53.220;6.528;2022-12-18T04:21:23;-5.60;99.90
52965;DHT22;42923;53.220;6.528;2022-12-18T04:23:49;-5.60;99.90
52965;DHT22;42923;53.220;6.528;2022-12-18T04:26:18;-5.60;99.90
52965;DHT22;42923;53.220;6.528;2022-12-18T04:28:54;-5.60;99.90
52965;DHT22;42923;53.220;6.528;2022-12-18T04:31:20;-5.60;99.90
52965;DHT22;42923;53.220;6.528;2022-12-18T04:33:46;-5.60;99.90
52965;DHT22;42923;53.220;6.528;2022-12-18T04:36:13;-5.70;99.90
52965;DHT22;42923;53.220;6.528;2022-12-18T04:38:39;-5.70;99.90
52965;DHT22;42923;53.220;6.528;2022-12-18T04:41:09;-5.70;99.90
52965;DHT22;42923;53.220;6.528;2022-12-18T04:43:35;-5.70;99.90
52965;DHT22;42923;53.220;6.528;2022-12-18T04:46:03;-5.80;99.90
52965;DHT22;42923;53.220;6.528;2022-12-18T04:48:29;-5.80;99.90
52965;DHT22;42923;53.220;6.528;2022-12-18T04:50:55;-5.80;99.90
52965;DHT22;42923;53.220;6.528;2022-12-18T04:53:20;-5.80;99.90
52965;DHT22;42923;53.220;6.528;2022-12-18T04:55:46;-5.90;99.90
52965;DHT22;42923;53.220;6.528;2022-12-18T04:58:12;-5.90;99.90
52965;DHT22;42923;53.220;6.528;2022-12-18T05:00:37;-5.90;99.90
52965;DHT22;42923;53.220;6.528;2022-12-18T05:03:03;-5.90;99.90
52965;DHT22;42923;53.220;6.528;2022-12-18T05:05:29;-5.90;99.90
52965;DHT22;42923;53.220;6.528;2022-12-18T05:07:54;-6.00;99.90
52965;DHT22;42923;53.220;6.528;2022-12-18T05:10:20;-6.00;99.90
52965;DHT22;42923;53.220;6.528;2022-12-18T05:12:46;-6.00;99.90
52965;DHT22;42923;53.220;6.528;2022-12-18T05:15:26;-6.00;99.90
52965;DHT22;42923;53.220;6.528;2022-12-18T05:17:51;-6.00;99.90
52965;DHT22;42923;53.220;6.528;2022-12-18T05:20:17;-6.00;99.90
52965;DHT22;42923;53.220;6.528;2022-12-18T05:22:43;-6.10;99.90
52965;DHT22;42923;53.220;6.528;2022-12-18T05:25:09;-6.00;99.90
52965;DHT22;42923;53.220;6.528;2022-12-18T05:27:35;-6.10;99.90
52965;DHT22;42923;53.220;6.528;2022-12-18T05:30:00;-6.10;99.90
52965;DHT22;42923;53.220;6.528;2022-12-18T05:32:26;-6.10;99.90
52965;DHT22;42923;53.220;6.528;2022-12-18T05:34:52;-6.10;99.90
52965;DHT22;42923;53.220;6.528;2022-12-18T05:37:17;-6.10;99.90
52965;DHT22;42923;53.220;6.528;2022-12-18T05:39:44;-6.10;99.90
52965;DHT22;42923;53.220;6.528;2022-12-18T05:42:09;-6.00;99.90
52965;DHT22;42923;53.220;6.528;2022-12-18T05:44:35;-6.10;99.90
52965;DHT22;42923;53.220;6.528;2022-12-18T05:47:01;-6.10;99.90
52965;DHT22;42923;53.220;6.528;2022-12-18T05:49:26;-6.10;99.90
52965;DHT22;42923;53.220;6.528;2022-12-18T05:51:52;-6.10;99.90
52965;DHT22;42923;53.220;6.528;2022-12-18T05:54:18;-6.10;99.90
52965;DHT22;42923;53.220;6.528;2022-12-18T05:56:44;-6.10;99.90
52965;DHT22;42923;53.220;6.528;2022-12-18T05:59:09;-6.20;99.90
52965;DHT22;42923;53.220;6.528;2022-12-18T06:01:35;-6.20;99.90
52965;DHT22;42923;53.220;6.528;2022-12-18T06:04:01;-6.20;99.90
52965;DHT22;42923;53.220;6.528;2022-12-18T06:06:27;-6.20;99.90
52965;DHT22;42923;53.220;6.528;2022-12-18T06:08:54;-6.30;99.90
52965;DHT22;42923;53.220;6.528;2022-12-18T06:11:23;-6.30;99.90
52965;DHT22;42923;53.220;6.528;2022-12-18T06:13:53;-6.30;99.90
52965;DHT22;42923;53.220;6.528;2022-12-18T06:16:19;-6.30;99.90
52965;DHT22;42923;53.220;6.528;2022-12-18T06:18:44;-6.30;99.90
52965;DHT22;42923;53.220;6.528;2022-12-18T06:21:10;-6.30;99.90
52965;DHT22;42923;53.220;6.528;2022-12-18T06:23:36;-6.30;99.90
52965;DHT22;42923;53.220;6.528;2022-12-18T06:26:06;-6.40;99.90
52965;DHT22;42923;53.220;6.528;2022-12-18T06:28:32;-6.40;99.90
52965;DHT22;42923;53.220;6.528;2022-12-18T06:30:57;-6.40;99.90
52965;DHT22;42923;53.220;6.528;2022-12-18T06:33:26;-6.10;99.90
52965;DHT22;42923;53.220;6.528;2022-12-18T06:35:52;-6.40;99.90
52965;DHT22;42923;53.220;6.528;2022-12-18T06:38:18;-6.40;99.90
52965;DHT22;42923;53.220;6.528;2022-12-18T06:40:43;-6.40;99.90
52965;DHT22;42923;53.220;6.528;2022-12-18T06:43:09;-6.40;99.90
52965;DHT22;42923;53.220;6.528;2022-12-18T06:45:35;-6.40;99.90
52965;DHT22;42923;53.220;6.528;2022-12-18T06:48:01;-6.40;99.90
52965;DHT22;42923;53.220;6.528;2022-12-18T06:50:27;-6.40;99.90
52965;DHT22;42923;53.220;6.528;2022-12-18T06:52:52;-6.40;99.90
52965;DHT22;42923;53.220;6.528;2022-12-18T06:55:18;-6.30;99.90
52965;DHT22;42923;53.220;6.528;2022-12-18T06:57:44;-6.30;99.90
52965;DHT22;42923;53.220;6.528;2022-12-18T07:00:10;-6.30;99.90
52965;DHT22;42923;53.220;6.528;2022-12-18T07:02:36;-6.30;99.90
52965;DHT22;42923;53.220;6.528;2022-12-18T07:05:01;-6.30;99.90
52965;DHT22;42923;53.220;6.528;2022-12-18T07:07:27;-6.30;99.90
52965;DHT22;42923;53.220;6.528;2022-12-18T07:09:53;-6.30;99.90
52965;DHT22;42923;53.220;6.528;2022-12-18T07:12:18;-6.30;99.90
52965;DHT22;42923;53.220;6.528;2022-12-18T07:14:44;-6.20;99.90
52965;DHT22;42923;53.220;6.528;2022-12-18T07:17:10;-6.20;99.90
52965;DHT22;42923;53.220;6.528;2022-12-18T07:19:35;-6.20;99.90
52965;DHT22;42923;53.220;6.528;2022-12-18T07:22:01;-6.20;99.90
52965;DHT22;42923;53.220;6.528;2022-12-18T07:24:27;-6.20;99.90
52965;DHT22;42923;53.220;6.528;2022-12-18T07:26:53;-6.20;99.90
52965;DHT22;42923;53.220;6.528;2022-12-18T07:29:19;-6.20;99.90
52965;DHT22;42923;53.220;6.528;2022-12-18T07:31:45;-6.20;99.90
52965;DHT22;42923;53.220;6.528;2022-12-18T07:34:12;-6.20;99.90
52965;DHT22;42923;53.220;6.528;2022-12-18T07:36:38;-6.20;99.90
52965;DHT22;42923;53.220;6.528;2022-12-18T07:39:03;-6.20;99.90
52965;DHT22;42923;53.220;6.528;2022-12-18T07:41:29;-6.20;99.90
52965;DHT22;42923;53.220;6.528;2022-12-18T07:43:55;-6.10;99.90
52965;DHT22;42923;53.220;6.528;2022-12-18T07:46:21;-6.10;99.90
52965;DHT22;42923;53.220;6.528;2022-12-18T07:48:46;-6.10;99.90
52965;DHT22;42923;53.220;6.528;2022-12-18T07:51:12;-6.10;99.90
52965;DHT22;42923;53.220;6.528;2022-12-18T07:53:39;-6.10;99.90
52965;DHT22;42923;53.220;6.528;2022-12-18T07:56:07;-6.10;99.90
52965;DHT22;42923;53.220;6.528;2022-12-18T07:58:34;-6.00;99.90
52965;DHT22;42923;53.220;6.528;2022-12-18T08:03:30;-5.90;99.90
52965;DHT22;42923;53.220;6.528;2022-12-18T08:06:14;-5.90;99.90
52965;DHT22;42923;53.220;6.528;2022-12-18T08:08:39;-5.90;99.90
52965;DHT22;42923;53.220;6.528;2022-12-18T08:11:06;-5.80;99.90
52965;DHT22;42923;53.220;6.528;2022-12-18T08:13:32;-5.80;99.90
52965;DHT22;42923;53.220;6.528;2022-12-18T08:16:04;-5.70;99.90
52965;DHT22;42923;53.220;6.528;2022-12-18T08:18:32;-5.70;99.90
52965;DHT22;42923;53.220;6.528;2022-12-18T08:21:08;-5.70;99.90
52965;DHT22;42923;53.220;6.528;2022-12-18T08:23:33;-5.60;99.90
52965;DHT22;42923;53.220;6.528;2022-12-18T08:25:59;-5.60;99.90
52965;DHT22;42923;53.220;6.528;2022-12-18T08:28:25;-5.50;99.90
52965;DHT22;42923;53.220;6.528;2022-12-18T08:30:53;-5.50;99.90
52965;DHT22;42923;53.220;6.528;2022-12-18T08:33:19;-5.50;99.90
52965;DHT22;42923;53.220;6.528;2022-12-18T08:35:45;-5.50;99.90
52965;DHT22;42923;53.220;6.528;2022-12-18T08:38:10;-5.50;99.90
52965;DHT22;42923;53.220;6.528;2022-12-18T08:40:36;-5.40;99.90
52965;DHT22;42923;53.220;6.528;2022-12-18T08:43:02;-5.30;99.90
52965;DHT22;42923;53.220;6.528;2022-12-18T08:45:46;-5.30;99.90
52965;DHT22;42923;53.220;6.528;2022-12-18T08:48:12;-5.20;99.90
52965;DHT22;42923;53.220;6.528;2022-12-18T08:50:37;-5.20;99.90
52965;DHT22;42923;53.220;6.528;2022-12-18T08:53:03;-5.10;99.90
52965;DHT22;42923;53.220;6.528;2022-12-18T08:55:29;-5.00;99.90
52965;DHT22;42923;53.220;6.528;2022-12-18T08:57:54;-5.00;99.90
52965;DHT22;42923;53.220;6.528;2022-12-18T09:00:20;-5.00;99.90
52965;DHT22;42923;53.220;6.528;2022-12-18T09:02:46;-4.90;99.90
52965;DHT22;42923;53.220;6.528;2022-12-18T09:05:11;-4.90;99.90
52965;DHT22;42923;53.220;6.528;2022-12-18T09:07:37;-4.80;99.90
52965;DHT22;42923;53.220;6.528;2022-12-18T09:10:03;-4.70;99.90
52965;DHT22;42923;53.220;6.528;2022-12-18T09:12:29;-4.70;99.90
52965;DHT22;42923;53.220;6.528;2022-12-18T09:14:55;-4.60;99.90
52965;DHT22;42923;53.220;6.528;2022-12-18T09:17:22;-4.60;99.90
52965;DHT22;42923;53.220;6.528;2022-12-18T09:19:47;-4.50;99.90
52965;DHT22;42923;53.220;6.528;2022-12-18T09:22:13;-4.40;99.90
52965;DHT22;42923;53.220;6.528;2022-12-18T09:24:39;-4.30;99.90
52965;DHT22;42923;53.220;6.528;2022-12-18T09:27:04;-4.20;99.90
52965;DHT22;42923;53.220;6.528;2022-12-18T09:29:30;-4.10;99.90
52965;DHT22;42923;53.220;6.528;2022-12-18T09:31:56;-4.00;99.90
52965;DHT22;42923;53.220;6.528;2022-12-18T09:34:21;-3.80;99.90
52965;DHT22;42923;53.220;6.528;2022-12-18T09:36:48;-3.70;99.90
52965;DHT22;42923;53.220;6.528;2022-12-18T09:39:14;-3.50;99.90
52965;DHT22;42923;53.220;6.528;2022-12-18T09:44:36;-2.90;99.90
52965;DHT22;42923;53.220;6.528;2022-12-18T09:47:13;-2.70;99.90
52965;DHT22;42923;53.220;6.528;2022-12-18T09:49:44;-2.50;99.90
52965;DHT22;42923;53.220;6.528;2022-12-18T09:52:25;-2.50;99.90
52965;DHT22;42923;53.220;6.528;2022-12-18T09:57:33;-2.60;99.90
52965;DHT22;42923;53.220;6.528;2022-12-18T10:00:11;-2.70;99.90
52965;DHT22;42923;53.220;6.528;2022-12-18T10:02:40;-2.80;99.90
52965;DHT22;42923;53.220;6.528;2022-12-18T10:05:35;-2.90;99.90
52965;DHT22;42923;53.220;6.528;2022-12-18T10:08:13;-3.00;99.90
52965;DHT22;42923;53.220;6.528;2022-12-18T10:10:51;-3.10;99.90
52965;DHT22;42923;53.220;6.528;2022-12-18T10:13:42;-3.10;99.90
52965;DHT22;42923;53.220;6.528;2022-12-18T10:24:35;-1.70;99.90
52965;DHT22;42923;53.220;6.528;2022-12-18T10:27:18;-1.00;99.90
52965;DHT22;42923;53.220;6.528;2022-12-18T10:29:44;-0.30;99.90
52965;DHT22;42923;53.220;6.528;2022-12-18T10:32:22;0.10;99.90
52965;DHT22;42923;53.220;6.528;2022-12-18T10:34:49;0.30;99.90
52965;DHT22;42923;53.220;6.528;2022-12-18T10:37:18;0.10;99.90
52965;DHT22;42923;53.220;6.528;2022-12-18T10:40:04;-0.10;99.90
52965;DHT22;42923;53.220;6.528;2022-12-18T10:42:31;-0.40;99.90
52965;DHT22;42923;53.220;6.528;2022-12-18T10:45:10;-0.80;99.90
52965;DHT22;42923;53.220;6.528;2022-12-18T10:47:42;-1.00;99.90
52965;DHT22;42923;53.220;6.528;2022-12-18T10:50:23;-1.10;99.90
52965;DHT22;42923;53.220;6.528;2022-12-18T10:52:58;-1.30;99.90
52965;DHT22;42923;53.220;6.528;2022-12-18T10:55:41;-1.50;99.90
52965;DHT22;42923;53.220;6.528;2022-12-18T11:00:41;-1.80;99.90
52965;DHT22;42923;53.220;6.528;2022-12-18T11:03:45;-1.90;99.90
52965;DHT22;42923;53.220;6.528;2022-12-18T11:06:20;-2.10;99.90
52965;DHT22;42923;53.220;6.528;2022-12-18T11:09:04;-2.20;99.90
52965;DHT22;42923;53.220;6.528;2022-12-18T11:11:32;-2.30;99.90
52965;DHT22;42923;53.220;6.528;2022-12-18T11:14:21;-2.30;99.90
52965;DHT22;42923;53.220;6.528;2022-12-18T11:16:49;-2.30;99.90
52965;DHT22;42923;53.220;6.528;2022-12-18T11:21:55;-2.30;99.90
52965;DHT22;42923;53.220;6.528;2022-12-18T11:24:35;-2.30;99.90
52965;DHT22;42923;53.220;6.528;2022-12-18T11:27:05;-2.30;99.90
52965;DHT22;42923;53.220;6.528;2022-12-18T11:29:36;-2.30;99.90
52965;DHT22;42923;53.220;6.528;2022-12-18T11:34:44;-2.30;99.90
52965;DHT22;42923;53.220;6.528;2022-12-18T11:37:13;-2.20;99.90
52965;DHT22;42923;53.220;6.528;2022-12-18T11:39:45;-2.20;99.90
52965;DHT22;42923;53.220;6.528;2022-12-18T11:42:24;-2.20;99.90
52965;DHT22;42923;53.220;6.528;2022-12-18T11:47:54;-2.10;99.90
52965;DHT22;42923;53.220;6.528;2022-12-18T11:50:25;-2.10;99.90
52965;DHT22;42923;53.220;6.528;2022-12-18T11:52:51;-2.10;99.90
52965;DHT22;42923;53.220;6.528;2022-12-18T11:55:35;-2.00;99.90
52965;DHT22;42923;53.220;6.528;2022-12-18T12:00:46;-2.00;99.90
52965;DHT22;42923;53.220;6.528;2022-12-18T12:03:45;-2.00;99.90
52965;DHT22;42923;53.220;6.528;2022-12-18T12:06:24;-1.90;99.90
52965;DHT22;42923;53.220;6.528;2022-12-18T12:14:17;-1.80;99.90
52965;DHT22;42923;53.220;6.528;2022-12-18T12:17:03;-1.80;99.90
52965;DHT22;42923;53.220;6.528;2022-12-18T12:20:03;-1.70;99.90
52965;DHT22;42923;53.220;6.528;2022-12-18T12:22:44;-1.70;99.90
52965;DHT22;42923;53.220;6.528;2022-12-18T12:39:01;-1.60;99.90
52965;DHT22;42923;53.220;6.528;2022-12-18T12:41:31;-1.60;99.90
52965;DHT22;42923;53.220;6.528;2022-12-18T12:44:42;-1.60;99.90
52965;DHT22;42923;53.220;6.528;2022-12-18T12:47:32;-1.60;99.90
52965;DHT22;42923;53.220;6.528;2022-12-18T12:50:01;-1.50;99.90
52965;DHT22;42923;53.220;6.528;2022-12-18T12:52:39;-1.50;99.90
52965;DHT22;42923;53.220;6.528;2022-12-18T12:55:25;-1.50;99.90
52965;DHT22;42923;53.220;6.528;2022-12-18T12:58:23;-1.50;99.90
52965;DHT22;42923;53.220;6.528;2022-12-18T13:01:01;-1.40;99.90
52965;DHT22;42923;53.220;6.528;2022-12-18T13:03:43;-1.40;99.90
52965;DHT22;42923;53.220;6.528;2022-12-18T13:09:00;-1.30;99.90
52965;DHT22;42923;53.220;6.528;2022-12-18T13:11:46;-1.30;99.90
52965;DHT22;42923;53.220;6.528;2022-12-18T13:14:40;-1.20;99.90
52965;DHT22;42923;53.220;6.528;2022-12-18T13:20:04;-1.10;99.90
52965;DHT22;42923;53.220;6.528;2022-12-18T13:25:01;-1.10;99.90
52965;DHT22;42923;53.220;6.528;2022-12-18T13:38:44;-1.10;99.90
52965;DHT22;42923;53.220;6.528;2022-12-18T13:41:26;-1.20;99.90
52965;DHT22;42923;53.220;6.528;2022-12-18T13:43:53;-1.20;99.90
52965;DHT22;42923;53.220;6.528;2022-12-18T13:46:43;-1.20;99.90
52965;DHT22;42923;53.220;6.528;2022-12-18T13:51:41;-1.20;99.90
52965;DHT22;42923;53.220;6.528;2022-12-18T13:56:58;-1.20;99.90
52965;DHT22;42923;53.220;6.528;2022-12-18T13:59:35;-1.20;99.90
52965;DHT22;42923;53.220;6.528;2022-12-18T14:02:15;-1.20;99.90
52965;DHT22;42923;53.220;6.528;2022-12-18T14:04:41;-1.20;99.90
52965;DHT22;42923;53.220;6.528;2022-12-18T14:09:49;-1.20;99.90
52965;DHT22;42923;53.220;6.528;2022-12-18T14:15:03;-1.30;99.90
52965;DHT22;42923;53.220;6.528;2022-12-18T14:17:31;-1.30;99.90
52965;DHT22;42923;53.220;6.528;2022-12-18T14:19:57;-1.30;99.90
52965;DHT22;42923;53.220;6.528;2022-12-18T14:22:26;-1.30;99.90
52965;DHT22;42923;53.220;6.528;2022-12-18T14:27:44;-1.30;99.90
52965;DHT22;42923;53.220;6.528;2022-12-18T14:30:24;-1.30;99.90
52965;DHT22;42923;53.220;6.528;2022-12-18T14:35:35;-1.40;99.90
52965;DHT22;42923;53.220;6.528;2022-12-18T14:38:19;-1.40;99.90
52965;DHT22;42923;53.220;6.528;2022-12-18T14:40:46;-1.50;99.90
52965;DHT22;42923;53.220;6.528;2022-12-18T14:43:12;-1.50;99.90
52965;DHT22;42923;53.220;6.528;2022-12-18T14:45:42;-1.50;99.90
52965;DHT22;42923;53.220;6.528;2022-12-18T14:50:37;-1.50;99.90
52965;DHT22;42923;53.220;6.528;2022-12-18T14:53:03;-1.50;99.90
52965;DHT22;42923;53.220;6.528;2022-12-18T14:55:29;-1.50;99.90
52965;DHT22;42923;53.220;6.528;2022-12-18T14:57:57;-1.60;99.90
52965;DHT22;42923;53.220;6.528;2022-12-18T15:00:24;-1.50;99.90
52965;DHT22;42923;53.220;6.528;2022-12-18T15:02:55;-1.60;99.90
52965;DHT22;42923;53.220;6.528;2022-12-18T15:05:29;-1.60;99.90
52965;DHT22;42923;53.220;6.528;2022-12-18T15:07:57;-1.60;99.90
52965;DHT22;42923;53.220;6.528;2022-12-18T15:10:27;-1.60;99.90
52965;DHT22;42923;53.220;6.528;2022-12-18T15:20:27;-1.70;99.90
52965;DHT22;42923;53.220;6.528;2022-12-18T15:22:55;-1.70;99.90
52965;DHT22;42923;53.220;6.528;2022-12-18T15:25:36;-1.70;99.90
52965;DHT22;42923;53.220;6.528;2022-12-18T15:28:17;-1.80;99.90
52965;DHT22;42923;53.220;6.528;2022-12-18T15:33:31;-1.80;99.90
52965;DHT22;42923;53.220;6.528;2022-12-18T15:36:03;-1.90;99.90
52965;DHT22;42923;53.220;6.528;2022-12-18T15:38:30;-1.90;99.90
52965;DHT22;42923;53.220;6.528;2022-12-18T15:40:56;-1.90;99.90
52965;DHT22;42923;53.220;6.528;2022-12-18T15:43:23;-1.90;99.90
52965;DHT22;42923;53.220;6.528;2022-12-18T15:46:06;-1.90;99.90
52965;DHT22;42923;53.220;6.528;2022-12-18T15:48:34;-1.90;99.90
52965;DHT22;42923;53.220;6.528;2022-12-18T15:51:01;-1.90;99.90
52965;DHT22;42923;53.220;6.528;2022-12-18T15:53:30;-1.90;99.90
52965;DHT22;42923;53.220;6.528;2022-12-18T15:55:58;-1.90;99.90
52965;DHT22;42923;53.220;6.528;2022-12-18T15:58:42;-1.90;99.90
52965;DHT22;42923;53.220;6.528;2022-12-18T16:01:09;-2.00;99.90
52965;DHT22;42923;53.220;6.528;2022-12-18T16:03:36;-2.00;99.90
52965;DHT22;42923;53.220;6.528;2022-12-18T16:06:02;-2.00;99.90
52965;DHT22;42923;53.220;6.528;2022-12-18T16:08:31;-1.90;99.90
52965;DHT22;42923;53.220;6.528;2022-12-18T16:10:57;-2.00;99.90
52965;DHT22;42923;53.220;6.528;2022-12-18T16:13:23;-2.00;99.90
52965;DHT22;42923;53.220;6.528;2022-12-18T16:15:49;-1.90;99.90
52965;DHT22;42923;53.220;6.528;2022-12-18T16:18:15;-2.00;99.90
52965;DHT22;42923;53.220;6.528;2022-12-18T16:20:41;-1.90;99.90
52965;DHT22;42923;53.220;6.528;2022-12-18T16:23:07;-2.00;99.90
52965;DHT22;42923;53.220;6.528;2022-12-18T16:25:33;-2.00;99.90
52965;DHT22;42923;53.220;6.528;2022-12-18T16:27:58;-2.00;99.90
52965;DHT22;42923;53.220;6.528;2022-12-18T16:30:27;-2.00;99.90
52965;DHT22;42923;53.220;6.528;2022-12-18T16:32:57;-2.00;99.90
52965;DHT22;42923;53.220;6.528;2022-12-18T16:35:24;-2.00;99.90
52965;DHT22;42923;53.220;6.528;2022-12-18T16:37:50;-1.90;99.90
52965;DHT22;42923;53.220;6.528;2022-12-18T16:40:17;-1.90;99.90
52965;DHT22;42923;53.220;6.528;2022-12-18T16:42:44;-1.90;99.90
52965;DHT22;42923;53.220;6.528;2022-12-18T16:45:16;-1.90;99.90
52965;DHT22;42923;53.220;6.528;2022-12-18T16:47:42;-1.90;99.90
52965;DHT22;42923;53.220;6.528;2022-12-18T16:50:08;-1.80;99.90
52965;DHT22;42923;53.220;6.528;2022-12-18T16:52:34;-1.80;99.90
52965;DHT22;42923;53.220;6.528;2022-12-18T16:55:00;-1.80;99.90
52965;DHT22;42923;53.220;6.528;2022-12-18T16:57:26;-1.80;99.90
52965;DHT22;42923;53.220;6.528;2022-12-18T16:59:52;-1.80;99.90
52965;DHT22;42923;53.220;6.528;2022-12-18T17:02:23;-1.80;99.90
52965;DHT22;42923;53.220;6.528;2022-12-18T17:04:52;-1.80;99.90
52965;DHT22;42923;53.220;6.528;2022-12-18T17:07:18;-1.70;99.90
52965;DHT22;42923;53.220;6.528;2022-12-18T17:09:44;-1.80;99.90
52965;DHT22;42923;53.220;6.528;2022-12-18T17:12:09;-1.70;99.90
52965;DHT22;42923;53.220;6.528;2022-12-18T17:14:36;-1.70;99.90
52965;DHT22;42923;53.220;6.528;2022-12-18T17:17:02;-1.70;99.90
52965;DHT22;42923;53.220;6.528;2022-12-18T17:19:28;-1.70;99.90
52965;DHT22;42923;53.220;6.528;2022-12-18T17:21:54;-1.60;99.90
52965;DHT22;42923;53.220;6.528;2022-12-18T17:24:20;-1.60;99.90
52965;DHT22;42923;53.220;6.528;2022-12-18T17:26:46;-1.50;99.90
52965;DHT22;42923;53.220;6.528;2022-12-18T17:29:15;-1.50;99.90
52965;DHT22;42923;53.220;6.528;2022-12-18T17:31:41;-1.50;99.90
52965;DHT22;42923;53.220;6.528;2022-12-18T17:34:09;-1.50;99.90
52965;DHT22;42923;53.220;6.528;2022-12-18T17:36:35;-1.40;99.90
52965;DHT22;42923;53.220;6.528;2022-12-18T17:39:03;-1.40;99.90
52965;DHT22;42923;53.220;6.528;2022-12-18T17:41:29;-0.70;99.90
52965;DHT22;42923;53.220;6.528;2022-12-18T17:43:57;-1.40;99.90